createdAt,value
2022-12-13T00:01:52.195Z,3.33
2022-12-13T00:04:21.765Z,3.15
2022-12-13T00:06:50.377Z,2.90
2022-12-13T00:09:19.760Z,2.42
2022-12-13T00:11:48.692Z,2.55
2022-12-13T00:14:16.669Z,2.40
2022-12-13T00:16:49.312Z,2.30
2022-12-13T00:19:18.424Z,2.00
2022-12-13T00:21:46.243Z,2.25
2022-12-13T00:24:14.772Z,2.20
2022-12-13T00:26:42.967Z,2.20
2022-12-13T00:29:12.332Z,2.50
2022-12-13T00:31:58.721Z,2.45
2022-12-13T00:34:27.985Z,2.20
2022-12-13T00:36:59.450Z,1.92
2022-12-13T00:39:27.666Z,1.90
2022-12-13T00:41:55.654Z,1.50
2022-12-13T00:44:23.841Z,1.88
2022-12-13T00:46:54.760Z,1.50
2022-12-13T00:49:22.519Z,1.42
2022-12-13T00:51:50.325Z,2.05
2022-12-13T00:54:18.141Z,1.52
2022-12-13T00:56:45.934Z,1.55
2022-12-13T00:59:15.157Z,2.00
2022-12-13T01:01:42.943Z,2.20
2022-12-13T01:04:11.118Z,1.77
2022-12-13T01:06:50.070Z,1.90
2022-12-13T01:09:20.862Z,1.83
2022-12-13T01:11:49.850Z,2.10
2022-12-13T01:14:18.547Z,1.60
2022-12-13T01:16:46.407Z,1.55
2022-12-13T01:19:14.227Z,1.35
2022-12-13T01:21:42.045Z,1.17
2022-12-13T01:24:09.714Z,1.63
2022-12-13T01:26:37.432Z,1.05
2022-12-13T01:29:05.973Z,1.48
2022-12-13T01:31:34.135Z,1.42
2022-12-13T01:34:10.372Z,1.48
2022-12-13T01:36:40.160Z,1.30
2022-12-13T01:39:15.068Z,1.48
2022-12-13T01:41:45.437Z,1.58
2022-12-13T01:44:51.109Z,2.10
2022-12-13T01:47:42.860Z,2.20
2022-12-13T01:50:17.223Z,1.65
2022-12-13T01:52:46.103Z,1.85
2022-12-13T01:55:17.197Z,1.70
2022-12-13T01:57:48.481Z,1.77
2022-12-13T02:00:17.691Z,1.60
2022-12-13T02:02:46.992Z,1.27
2022-12-13T02:05:38.800Z,1.40
2022-12-13T02:08:09.425Z,1.70
2022-12-13T02:10:37.682Z,1.70
2022-12-13T02:13:05.716Z,1.55
2022-12-13T02:16:22.573Z,1.45
2022-12-13T02:19:00.975Z,1.45
2022-12-13T02:21:40.701Z,1.83
2022-12-13T02:24:23.436Z,1.67
2022-12-13T02:26:54.204Z,1.60
2022-12-13T02:30:00.953Z,1.42
2022-12-13T02:32:59.183Z,1.80
2022-12-13T02:35:43.252Z,1.80
2022-12-13T02:38:24.714Z,1.70
2022-12-13T02:41:07.014Z,1.90
2022-12-13T02:43:46.162Z,1.50
2022-12-13T02:46:19.052Z,1.60
2022-12-13T02:48:48.952Z,1.90
2022-12-13T02:51:17.847Z,1.98
2022-12-13T02:53:46.506Z,2.00
2022-12-13T02:56:14.515Z,1.70
2022-12-13T02:58:49.283Z,1.63
2022-12-13T03:01:49.932Z,1.52
2022-12-13T03:04:26.575Z,1.42
2022-12-13T03:07:15.640Z,1.50
2022-12-13T03:10:02.713Z,1.65
2022-12-13T03:12:49.038Z,1.70
2022-12-13T03:15:29.392Z,1.60
2022-12-13T03:17:59.893Z,1.40
2022-12-13T03:20:29.501Z,1.30
2022-12-13T03:22:58.307Z,1.50
2022-12-13T03:25:31.591Z,1.42
2022-12-13T03:28:02.604Z,1.38
2022-12-13T03:30:33.753Z,1.73
2022-12-13T03:33:01.741Z,1.67
2022-12-13T03:35:34.573Z,1.17
2022-12-13T03:38:21.337Z,1.30
2022-12-13T03:40:57.669Z,1.20
2022-12-13T03:43:26.693Z,1.50
2022-12-13T03:45:54.503Z,1.95
2022-12-13T03:48:23.761Z,1.70
2022-12-13T03:50:53.923Z,1.60
2022-12-13T03:53:32.663Z,1.40
2022-12-13T03:56:04.909Z,1.15
2022-12-13T03:58:36.830Z,1.30
2022-12-13T04:01:07.069Z,1.67
2022-12-13T04:03:35.713Z,1.40
2022-12-13T04:06:04.996Z,1.80
2022-12-13T04:08:33.248Z,1.50
2022-12-13T04:11:20.896Z,1.73
2022-12-13T04:13:48.736Z,2.28
2022-12-13T04:16:16.406Z,2.20
2022-12-13T04:18:44.315Z,1.95
2022-12-13T04:21:12.172Z,2.50
2022-12-13T04:23:39.958Z,1.88
2022-12-13T04:26:07.642Z,3.17
2022-12-13T04:28:35.225Z,3.75
2022-12-13T04:31:03.072Z,5.78
2022-12-13T04:33:32.898Z,5.57
2022-12-13T04:36:00.580Z,5.13
2022-12-13T04:38:28.199Z,4.20
2022-12-13T04:41:08.707Z,3.42
2022-12-13T04:43:36.367Z,3.70
2022-12-13T04:46:04.338Z,3.15
2022-12-13T04:48:32.790Z,3.08
2022-12-13T04:51:01.628Z,2.78
2022-12-13T04:53:30.637Z,2.78
2022-12-13T04:55:58.880Z,2.42
2022-12-13T04:58:28.984Z,2.50
2022-12-13T05:00:56.685Z,2.20
2022-12-13T05:03:24.594Z,2.53
2022-12-13T05:05:52.323Z,2.60
2022-12-13T05:08:20.107Z,2.30
2022-12-13T05:10:47.810Z,2.22
2022-12-13T05:13:15.587Z,2.60
2022-12-13T05:15:43.190Z,2.30
2022-12-13T05:18:11.167Z,2.60
2022-12-13T05:20:40.044Z,2.00
2022-12-13T05:23:07.905Z,1.60
2022-12-13T05:25:37.411Z,1.95
2022-12-13T05:28:26.960Z,1.73
2022-12-13T05:31:06.080Z,2.00
2022-12-13T05:33:52.619Z,1.75
2022-12-13T05:36:22.678Z,1.75
2022-12-13T05:38:50.513Z,1.60
2022-12-13T05:41:21.796Z,1.92
2022-12-13T05:43:49.496Z,1.90
2022-12-13T05:46:17.331Z,2.00
2022-12-13T05:48:45.296Z,2.00
2022-12-13T05:51:13.090Z,2.20
2022-12-13T05:53:42.522Z,1.98
2022-12-13T05:56:11.498Z,1.98
2022-12-13T05:58:40.819Z,1.75
2022-12-13T06:01:10.947Z,2.10
2022-12-13T06:03:39.518Z,1.92
2022-12-13T06:06:09.458Z,1.88
2022-12-13T06:08:37.855Z,1.80
2022-12-13T06:11:10.784Z,1.80
2022-12-13T06:13:44.222Z,1.77
2022-12-13T06:16:21.991Z,1.85
2022-12-13T06:19:03.635Z,1.70
2022-12-13T06:21:43.556Z,1.73
2022-12-13T06:24:15.190Z,2.40
2022-12-13T06:26:44.960Z,2.65
2022-12-13T06:29:23.799Z,3.38
2022-12-13T06:32:01.916Z,3.80
2022-12-13T06:34:33.664Z,5.40
2022-12-13T06:37:04.569Z,5.50
2022-12-13T06:39:33.439Z,5.85
2022-12-13T06:42:03.123Z,6.03
2022-12-13T06:44:32.412Z,5.30
2022-12-13T06:47:11.454Z,5.95
2022-12-13T06:49:43.089Z,4.88
2022-12-13T06:52:12.888Z,4.43
2022-12-13T06:54:41.725Z,3.50
2022-12-13T06:57:10.758Z,4.10
2022-12-13T06:59:38.631Z,3.35
2022-12-13T07:02:06.962Z,3.38
2022-12-13T07:04:52.593Z,3.13
2022-12-13T07:07:20.256Z,3.47
2022-12-13T07:09:47.888Z,3.50
2022-12-13T07:12:15.590Z,3.03
2022-12-13T07:14:43.374Z,3.03
2022-12-13T07:17:11.412Z,3.60
2022-12-13T07:19:40.049Z,3.03
2022-12-13T07:22:07.837Z,3.20
2022-12-13T07:24:35.892Z,3.13
2022-12-13T07:27:04.758Z,3.00
2022-12-13T07:29:32.513Z,2.95
2022-12-13T07:32:01.367Z,3.53
2022-12-13T07:34:30.987Z,3.50
2022-12-13T07:36:58.733Z,3.30
2022-12-13T07:39:26.639Z,3.58
2022-12-13T07:41:56.150Z,3.58
2022-12-13T07:44:25.126Z,3.97
2022-12-13T07:46:53.322Z,2.85
2022-12-13T07:49:21.184Z,3.35
2022-12-13T07:51:49.293Z,3.17
2022-12-13T07:54:17.310Z,3.00
2022-12-13T07:56:45.957Z,3.03
2022-12-13T07:59:14.134Z,3.35
2022-12-13T08:01:41.989Z,3.60
2022-12-13T08:04:10.333Z,3.78
2022-12-13T08:06:39.180Z,3.17
2022-12-13T08:09:07.287Z,3.38
2022-12-13T08:11:34.995Z,3.95
2022-12-13T08:14:03.755Z,4.05
2022-12-13T08:16:31.794Z,3.78
2022-12-13T08:19:04.041Z,4.00
2022-12-13T08:22:01.723Z,3.83
2022-12-13T08:24:31.113Z,3.35
2022-12-13T08:27:03.620Z,3.40
2022-12-13T08:29:35.878Z,3.58
2022-12-13T08:32:07.480Z,3.58
2022-12-13T08:34:35.583Z,3.75
2022-12-13T08:37:04.497Z,4.05
2022-12-13T08:39:37.199Z,3.30
2022-12-13T08:42:15.111Z,3.97
2022-12-13T08:44:50.969Z,3.95
2022-12-13T08:47:22.874Z,3.75
2022-12-13T08:50:01.553Z,3.85
2022-12-13T08:52:39.855Z,4.35
2022-12-13T08:55:15.295Z,4.25
2022-12-13T08:57:44.025Z,5.15
2022-12-13T09:00:15.762Z,4.65
2022-12-13T09:02:44.383Z,4.72
2022-12-13T09:05:13.165Z,4.15
2022-12-13T09:08:02.926Z,4.57
2022-12-13T09:10:38.654Z,4.05
2022-12-13T09:13:11.762Z,4.40
2022-12-13T09:15:45.908Z,3.70
2022-12-13T09:18:15.163Z,4.00
2022-12-13T09:20:43.535Z,4.68
2022-12-13T09:23:14.299Z,4.15
2022-12-13T09:26:05.260Z,4.00
2022-12-13T09:28:37.096Z,4.28
2022-12-13T09:31:14.471Z,4.07
2022-12-13T09:36:16.448Z,4.53
2022-12-13T09:38:44.858Z,4.47
2022-12-13T09:41:28.607Z,5.07
2022-12-13T09:44:01.792Z,6.30
2022-12-13T09:46:44.791Z,7.55
2022-12-13T09:49:25.349Z,7.28
2022-12-13T09:52:10.697Z,7.38
2022-12-13T09:54:49.378Z,8.45
2022-12-13T09:57:37.139Z,7.45
2022-12-13T10:00:07.618Z,6.85
2022-12-13T10:02:50.675Z,8.20
2022-12-13T10:05:22.509Z,7.97
2022-12-13T10:07:56.130Z,7.07
2022-12-13T10:10:24.374Z,7.32
2022-12-13T10:13:17.810Z,7.00
2022-12-13T10:16:02.659Z,6.43
2022-12-13T10:18:37.176Z,7.43
2022-12-13T10:21:11.895Z,7.78
2022-12-13T10:24:07.260Z,7.20
2022-12-13T10:26:36.597Z,7.72
2022-12-13T10:29:06.685Z,7.88
2022-12-13T10:31:43.570Z,6.97
2022-12-13T10:34:30.069Z,7.38
2022-12-13T10:36:59.813Z,7.30
2022-12-13T10:39:42.882Z,6.97
2022-12-13T10:42:22.136Z,7.20
2022-12-13T10:45:23.318Z,7.43
2022-12-13T10:47:52.672Z,7.43
2022-12-13T10:50:27.662Z,6.90
2022-12-13T10:52:57.700Z,6.95
2022-12-13T10:55:38.084Z,8.20
2022-12-13T10:58:09.594Z,7.20
2022-12-13T11:00:45.268Z,7.00
2022-12-13T11:03:32.905Z,7.20
2022-12-13T11:06:16.327Z,7.47
2022-12-13T11:08:44.668Z,7.03
2022-12-13T11:11:13.357Z,7.43
2022-12-13T11:13:47.323Z,7.53
2022-12-13T11:16:27.072Z,6.72
2022-12-13T11:18:58.183Z,6.50
2022-12-13T11:21:29.073Z,6.10
2022-12-13T11:24:01.793Z,6.63
2022-12-13T11:26:32.824Z,6.90
2022-12-13T11:29:09.407Z,7.50
2022-12-13T11:31:46.409Z,7.10
2022-12-13T11:34:19.950Z,7.80
2022-12-13T11:37:10.456Z,8.23
2022-12-13T11:39:47.518Z,8.25
2022-12-13T11:42:34.923Z,7.07
2022-12-13T11:45:23.127Z,8.88
2022-12-13T11:47:58.452Z,7.70
2022-12-13T11:50:35.897Z,7.95
2022-12-13T11:53:19.294Z,7.82
2022-12-13T11:55:57.257Z,8.05
2022-12-13T11:59:01.322Z,8.52
2022-12-13T12:02:04.899Z,8.50
2022-12-13T12:04:44.715Z,9.35
2022-12-13T12:07:32.209Z,10.45
2022-12-13T12:10:19.723Z,9.85
2022-12-13T12:12:56.072Z,10.40
2022-12-13T12:15:41.785Z,9.20
2022-12-13T12:18:17.157Z,7.68
2022-12-13T12:21:16.130Z,7.25
2022-12-13T12:24:21.673Z,8.10
2022-12-13T12:27:22.222Z,7.20
2022-12-13T12:29:56.483Z,7.05
2022-12-13T12:32:32.987Z,7.47
2022-12-13T12:35:15.946Z,7.65
2022-12-13T12:37:58.741Z,8.82
2022-12-13T12:43:41.678Z,9.60
2022-12-13T12:46:24.646Z,9.82
2022-12-13T12:49:29.416Z,8.85
2022-12-13T12:52:02.483Z,8.48
2022-12-13T12:54:39.766Z,8.82
2022-12-13T12:57:26.217Z,9.52
2022-12-13T13:00:01.891Z,11.15
2022-12-13T13:03:18.794Z,11.13
2022-12-13T13:06:06.750Z,12.55
2022-12-13T13:08:59.947Z,13.50
2022-12-13T13:11:31.072Z,12.35
2022-12-13T13:14:01.630Z,12.18
2022-12-13T13:16:35.346Z,12.15
2022-12-13T13:19:06.208Z,12.38
2022-12-13T13:21:40.914Z,12.82
2022-12-13T13:24:16.271Z,12.75
2022-12-13T13:26:46.142Z,11.77
2022-12-13T13:29:32.143Z,12.75
2022-12-13T13:32:07.567Z,12.75
2022-12-13T13:34:42.803Z,13.27
2022-12-13T13:37:22.840Z,13.05
2022-12-13T13:40:30.171Z,11.95
2022-12-13T13:43:05.527Z,13.45
2022-12-13T13:45:51.900Z,13.45
2022-12-13T13:48:48.177Z,10.23
2022-12-13T13:51:41.505Z,14.00
2022-12-13T13:54:26.426Z,14.35
2022-12-13T13:57:38.564Z,15.65
2022-12-13T14:00:23.227Z,16.52
2022-12-13T14:03:44.470Z,16.67
2022-12-13T14:06:42.045Z,16.45
2022-12-13T14:09:28.687Z,15.48
2022-12-13T14:12:30.549Z,15.65
2022-12-13T14:15:19.266Z,16.25
2022-12-13T14:20:30.365Z,16.30
2022-12-13T14:23:14.308Z,17.23
2022-12-13T14:26:07.793Z,15.82
2022-12-13T14:29:00.386Z,14.70
2022-12-13T14:31:40.907Z,14.25
2022-12-13T14:34:29.926Z,14.05
2022-12-13T14:37:27.442Z,13.32
2022-12-13T14:39:55.291Z,12.10
2022-12-13T14:42:26.100Z,11.80
2022-12-13T14:45:38.550Z,12.02
2022-12-13T14:48:14.641Z,11.55
2022-12-13T14:50:46.345Z,10.85
2022-12-13T14:53:28.224Z,11.32
2022-12-13T14:56:10.877Z,10.50
2022-12-13T14:59:01.913Z,10.88
2022-12-13T15:01:37.572Z,10.27
2022-12-13T15:04:24.194Z,10.30
2022-12-13T15:07:15.246Z,10.70
2022-12-13T15:09:45.613Z,10.55
2022-12-13T15:12:24.442Z,11.50
2022-12-13T15:14:58.767Z,11.55
2022-12-13T15:17:40.366Z,11.13
2022-12-13T15:20:42.088Z,11.38
2022-12-13T15:23:23.609Z,10.93
2022-12-13T15:26:00.662Z,10.82
2022-12-13T15:28:35.053Z,10.25
2022-12-13T15:31:06.255Z,9.90
2022-12-13T15:33:40.894Z,10.48
2022-12-13T15:36:22.081Z,9.65
2022-12-13T15:38:56.160Z,9.75
2022-12-13T15:41:28.974Z,10.40
2022-12-13T15:44:00.791Z,10.75
2022-12-13T15:46:32.321Z,10.60
2022-12-13T15:49:02.827Z,11.15
2022-12-13T15:51:31.077Z,10.20
2022-12-13T15:54:05.230Z,10.20
2022-12-13T15:56:36.422Z,11.38
2022-12-13T15:59:05.720Z,10.50
2022-12-13T16:01:36.088Z,11.07
2022-12-13T16:04:06.433Z,11.85
2022-12-13T16:06:34.552Z,12.45
2022-12-13T16:09:05.198Z,13.20
2022-12-13T16:11:55.289Z,12.48
2022-12-13T16:14:48.906Z,12.05
2022-12-13T16:17:27.126Z,12.10
2022-12-13T16:22:24.998Z,11.82
2022-12-13T16:24:53.012Z,13.75
2022-12-13T16:27:20.773Z,14.02
2022-12-13T16:29:48.385Z,13.68
2022-12-13T16:32:16.274Z,14.18
2022-12-13T16:34:44.134Z,14.13
2022-12-13T16:37:26.396Z,13.35
2022-12-13T16:39:56.168Z,13.27
2022-12-13T16:42:25.950Z,11.77
2022-12-13T16:45:40.733Z,12.07
2022-12-13T16:47:49.271Z,12.27
2022-12-13T16:50:21.166Z,12.20
2022-12-13T16:52:49.426Z,12.25
2022-12-13T16:55:17.284Z,12.35
2022-12-13T16:57:56.098Z,11.60
2022-12-13T17:00:23.942Z,11.68
2022-12-13T17:02:51.715Z,11.80
2022-12-13T17:05:19.883Z,10.77
2022-12-13T17:07:47.783Z,10.48
2022-12-13T17:10:16.787Z,10.60
2022-12-13T17:12:45.206Z,11.77
2022-12-13T17:15:13.532Z,14.05
2022-12-13T17:17:43.989Z,15.27
2022-12-13T17:20:17.806Z,18.45
2022-12-13T17:22:46.792Z,17.75
2022-12-13T17:25:15.007Z,15.07
2022-12-13T17:27:43.074Z,14.23
2022-12-13T17:30:15.044Z,12.68
2022-12-13T17:32:43.100Z,12.48
2022-12-13T17:35:17.833Z,11.50
2022-12-13T17:37:46.409Z,10.70
2022-12-13T17:40:14.158Z,11.73
2022-12-13T17:42:42.164Z,10.77
2022-12-13T17:45:10.227Z,10.25
2022-12-13T17:47:39.929Z,11.02
2022-12-13T17:50:09.329Z,9.90
2022-12-13T17:52:41.360Z,9.48
2022-12-13T17:55:14.916Z,8.88
2022-12-13T17:57:45.730Z,9.32
2022-12-13T18:00:14.371Z,9.23
2022-12-13T18:02:42.088Z,11.93
2022-12-13T18:05:26.521Z,15.20
2022-12-13T18:07:54.274Z,22.17
2022-12-13T18:10:27.789Z,17.77
2022-12-13T18:12:58.274Z,14.43
2022-12-13T18:15:26.397Z,15.23
2022-12-13T18:18:13.669Z,16.70
2022-12-13T18:20:41.618Z,16.67
2022-12-13T18:23:10.405Z,14.77
2022-12-13T18:25:39.103Z,12.60
2022-12-13T18:28:10.089Z,11.98
2022-12-13T18:30:38.439Z,11.38
2022-12-13T18:33:06.519Z,11.07
2022-12-13T18:35:36.735Z,13.77
2022-12-13T18:38:04.626Z,14.48
2022-12-13T18:40:32.556Z,12.93
2022-12-13T18:43:00.375Z,12.73
2022-12-13T18:45:29.755Z,12.70
2022-12-13T18:47:57.510Z,12.93
2022-12-13T18:50:25.906Z,13.55
2022-12-13T18:52:53.610Z,12.48
2022-12-13T18:55:22.962Z,11.20
2022-12-13T18:57:51.857Z,10.73
2022-12-13T19:00:19.994Z,9.98
2022-12-13T19:02:47.782Z,12.10
2022-12-13T19:05:16.860Z,11.30
2022-12-13T19:07:44.661Z,10.70
2022-12-13T19:10:12.417Z,9.50
2022-12-13T19:12:40.347Z,11.45
2022-12-13T19:15:08.423Z,11.00
2022-12-13T19:17:36.174Z,12.07
2022-12-13T19:20:04.377Z,12.35
2022-12-13T19:22:32.108Z,11.50
2022-12-13T19:24:59.712Z,12.88
2022-12-13T19:27:27.469Z,18.17
2022-12-13T19:29:55.136Z,19.80
2022-12-13T19:32:24.356Z,20.60
2022-12-13T19:34:52.159Z,17.85
2022-12-13T19:37:19.857Z,16.00
2022-12-13T19:39:47.623Z,13.73
2022-12-13T19:42:15.424Z,12.52
2022-12-13T19:44:43.054Z,12.65
2022-12-13T19:47:11.351Z,12.00
2022-12-13T19:49:39.864Z,11.75
2022-12-13T19:52:07.467Z,13.00
2022-12-13T19:54:35.244Z,11.55
2022-12-13T19:57:07.190Z,11.43
2022-12-13T19:59:36.896Z,12.15
2022-12-13T20:02:05.831Z,21.83
2022-12-13T20:04:33.584Z,27.23
2022-12-13T20:07:01.901Z,24.15
2022-12-13T20:09:29.913Z,21.38
2022-12-13T20:11:57.820Z,18.23
2022-12-13T20:14:25.873Z,15.90
2022-12-13T20:16:53.633Z,14.77
2022-12-13T20:19:21.435Z,13.85
2022-12-13T20:21:53.625Z,13.32
2022-12-13T20:24:24.584Z,15.13
2022-12-13T20:26:52.379Z,17.08
2022-12-13T20:29:20.167Z,16.40
2022-12-13T20:31:51.665Z,17.00
2022-12-13T20:34:20.967Z,16.45
2022-12-13T20:36:48.942Z,16.52
2022-12-13T20:39:16.783Z,15.48
2022-12-13T20:41:44.592Z,12.90
2022-12-13T20:44:13.437Z,13.43
2022-12-13T20:46:41.375Z,13.43
2022-12-13T20:49:09.932Z,12.73
2022-12-13T20:51:41.852Z,12.23
2022-12-13T20:54:11.763Z,12.02
2022-12-13T20:56:39.995Z,12.80
2022-12-13T20:59:11.080Z,13.85
2022-12-13T21:01:43.290Z,13.50
2022-12-13T21:04:11.981Z,15.00
2022-12-13T21:06:41.901Z,16.20
2022-12-13T21:09:11.626Z,15.27
2022-12-13T21:11:40.718Z,12.70
2022-12-13T21:14:25.601Z,11.93
2022-12-13T21:17:02.052Z,13.02
2022-12-13T21:19:39.147Z,13.30
2022-12-13T21:22:08.607Z,12.23
2022-12-13T21:24:36.281Z,12.90
2022-12-13T21:27:04.736Z,12.70
2022-12-13T21:29:32.335Z,14.13
2022-12-13T21:32:00.543Z,17.77
2022-12-13T21:34:28.424Z,16.80
2022-12-13T21:36:56.157Z,18.92
2022-12-13T21:39:29.360Z,17.15
2022-12-13T21:41:58.230Z,15.73
2022-12-13T21:44:26.113Z,14.00
2022-12-13T21:49:41.734Z,11.80
2022-12-13T21:52:09.476Z,11.48
2022-12-13T21:54:37.189Z,10.60
2022-12-13T21:57:23.389Z,10.25
2022-12-13T21:59:51.160Z,10.30
2022-12-13T22:02:19.591Z,9.85
2022-12-13T22:04:55.410Z,9.23
2022-12-13T22:07:32.840Z,8.50
2022-12-13T22:10:02.367Z,8.75
2022-12-13T22:12:38.112Z,8.38
2022-12-13T22:15:09.228Z,10.27
2022-12-13T22:17:37.884Z,9.95
2022-12-13T22:20:11.356Z,9.63
2022-12-13T22:22:40.149Z,10.63
2022-12-13T22:25:10.671Z,12.63
2022-12-13T22:27:38.482Z,15.15
2022-12-13T22:30:07.246Z,18.77
2022-12-13T22:32:34.941Z,17.80
2022-12-13T22:35:02.751Z,17.98
2022-12-13T22:37:30.915Z,18.13
2022-12-13T22:39:58.562Z,17.48
2022-12-13T22:42:26.432Z,18.02
2022-12-13T22:44:54.622Z,16.90
2022-12-13T22:47:23.424Z,17.05
2022-12-13T22:49:51.258Z,15.10
2022-12-13T22:52:20.343Z,15.00
2022-12-13T22:54:48.195Z,14.20
2022-12-13T22:57:15.910Z,13.80
2022-12-13T22:59:43.527Z,14.27
2022-12-13T23:02:12.946Z,14.15
2022-12-13T23:04:41.004Z,13.05
2022-12-13T23:07:08.717Z,13.65
2022-12-13T23:09:36.497Z,12.95
2022-12-13T23:12:23.448Z,13.18
2022-12-13T23:14:52.116Z,12.80
2022-12-13T23:17:19.929Z,12.25
2022-12-13T23:19:51.532Z,12.13
2022-12-13T23:22:23.106Z,12.23
2022-12-13T23:24:51.900Z,11.55
2022-12-13T23:27:22.386Z,11.05
2022-12-13T23:29:51.153Z,11.27
2022-12-13T23:32:19.028Z,11.65
2022-12-13T23:34:46.803Z,10.90
2022-12-13T23:37:14.534Z,11.10
2022-12-13T23:39:42.322Z,10.02
2022-12-13T23:42:10.180Z,10.27
2022-12-13T23:44:38.054Z,9.20
2022-12-13T23:47:06.036Z,9.45
2022-12-13T23:49:33.702Z,9.93
2022-12-13T23:52:01.470Z,9.65
2022-12-13T23:54:29.192Z,10.27
2022-12-13T23:56:57.031Z,8.95
2022-12-13T23:59:26.485Z,9.00
